Accueil
METAR-TAF:

METAR-TAF

Aéroports :

Zagreb, Croatie

Aéroport de Zagreb

latitude: 45-44N, longitude: 016-04E, altitude: 106 m

Observation

Le bulletin a été fait il y a 25 minutes, à 12:30 UTC
Vent 2 kt de direction variable
Température 21°C
Humidité 64%
Pression 1017 hPa
Visibilité 10 km ou plus
pas de nuages en-dessous de 1500 mètres et pas de cumulonimbus.

METAR: LDZA 181230Z VRB02KT CAVOK 21/14 Q1017 NOSIG

Heure: 14:55 (12:55 UTC)

Prévision

Le bulletin a été fait il y a 1 heure et 30 minutes, à 11:25 UTC
Prévision valable du 18 à 12 UTC au 19 à 12 UTC
Vent 5 kt de sud-ouest
Visibilité 10 km ou plus
pas de nuages en-dessous de 1500 mètres et pas de cumulonimbus.
Evoluant progressivement
du 18 à 16 UTC au 18 à 18 UTC
Vent 10 kt de sud-ouest
Evoluant progressivement
du 18 à 21 UTC au 18 à 23 UTC
Vent 5 kt de sud-ouest

TAF: LDZA 181125Z 1812/1912 23005KT CAVOK TX22/1813Z TN10/1903Z BECMG 1816/1818 23010KT BECMG 1821/1823 23005KT

Observations et prévisions météorologiques de plus de 4000 aéroports (messages METAR et TAF).

Les stations disponibles sont représentées par des disques jaunes et rouges sur la carte.

Passer la souris dessus pour voir le nom de la station.

Cliquer dessus pour voir les observations et prévisions météorologiques.

Pour changer de carte: cliquez sur les boutons verts avec une croix noire pour zoomer, sur le bouton vert avec un tiret pour effectuer un zoom arrière, ou sur les flèches vertes pour les cartes adjacentes.


METAR-TAF: